createdAt,value
2022-08-18T00:08:07.857Z,78.47
2022-08-18T00:11:01.621Z,78.09
2022-08-18T00:14:37.821Z,78.18
2022-08-18T00:17:31.767Z,78.00
2022-08-18T00:20:44.820Z,78.04
2022-08-18T00:23:41.405Z,78.46
2022-08-18T00:26:50.790Z,78.60
2022-08-18T00:30:02.739Z,78.16
2022-08-18T00:33:18.821Z,78.02
2022-08-18T00:36:15.793Z,77.91
2022-08-18T00:43:17.583Z,77.99
2022-08-18T00:46:33.148Z,78.09
2022-08-18T00:49:46.791Z,78.17
2022-08-18T00:52:39.856Z,78.29
2022-08-18T00:55:54.898Z,78.38
2022-08-18T00:59:03.837Z,78.55
2022-08-18T01:02:12.753Z,78.80
2022-08-18T01:05:25.352Z,79.46
2022-08-18T01:08:29.844Z,79.66
2022-08-18T01:11:39.922Z,79.13
2022-08-18T01:15:01.805Z,79.53
2022-08-18T01:18:07.823Z,79.29
2022-08-18T01:21:13.785Z,78.92
2022-08-18T01:24:32.777Z,79.01
2022-08-18T01:27:34.787Z,79.07
2022-08-18T01:30:49.842Z,78.86
2022-08-18T01:34:02.577Z,78.87
2022-08-18T01:37:09.878Z,78.56
2022-08-18T01:41:25.163Z,78.35
2022-08-18T01:43:49.838Z,78.42
2022-08-18T01:49:49.989Z,78.20
2022-08-18T01:52:58.661Z,78.35
2022-08-18T01:59:11.448Z,78.24
2022-08-18T02:02:12.051Z,78.08
2022-08-18T02:05:13.133Z,78.06
2022-08-18T02:07:44.545Z,77.98
2022-08-18T02:10:16.436Z,77.80
2022-08-18T02:12:55.601Z,77.82
2022-08-18T02:15:41.977Z,77.79
2022-08-18T02:18:46.913Z,77.64
2022-08-18T02:21:29.291Z,77.67
2022-08-18T02:24:19.460Z,77.57
2022-08-18T02:27:08.977Z,77.07
2022-08-18T02:29:52.305Z,76.75
2022-08-18T02:32:22.120Z,76.30
2022-08-18T02:35:31.900Z,76.63
2022-08-18T02:39:01.900Z,76.37
2022-08-18T02:41:34.111Z,76.17
2022-08-18T02:44:44.053Z,76.62
2022-08-18T02:47:37.968Z,76.22
2022-08-18T02:50:10.906Z,76.05
2022-08-18T02:52:41.942Z,75.87
2022-08-18T02:55:40.802Z,75.92
2022-08-18T02:58:20.528Z,75.67
2022-08-18T03:00:49.147Z,75.66
2022-08-18T03:03:20.181Z,75.91
2022-08-18T03:05:54.647Z,76.04
2022-08-18T03:08:27.361Z,76.26
2022-08-18T03:11:07.671Z,76.89
2022-08-18T03:13:39.157Z,76.76
2022-08-18T03:16:20.597Z,76.84
2022-08-18T03:19:19.337Z,77.18
2022-08-18T03:22:28.338Z,78.18
2022-08-18T03:25:35.827Z,80.52
2022-08-18T03:28:05.098Z,79.31
2022-08-18T03:31:12.204Z,81.38
2022-08-18T03:33:48.283Z,82.09
2022-08-18T03:36:23.148Z,82.79
2022-08-18T03:39:01.229Z,81.98
2022-08-18T03:41:57.972Z,81.41
2022-08-18T03:44:40.865Z,81.29
2022-08-18T03:47:19.403Z,81.19
2022-08-18T03:49:51.294Z,80.35
2022-08-18T03:52:43.356Z,80.03
2022-08-18T03:55:11.891Z,79.94
2022-08-18T03:57:45.718Z,79.98
2022-08-18T04:00:18.003Z,80.11
2022-08-18T04:03:11.830Z,80.10
2022-08-18T04:06:03.140Z,80.34
2022-08-18T04:08:50.547Z,80.22
2022-08-18T04:11:28.682Z,80.34
2022-08-18T04:14:43.807Z,80.52
2022-08-18T04:17:32.778Z,80.76
2022-08-18T04:20:11.078Z,80.30
2022-08-18T04:23:45.815Z,80.11
2022-08-18T04:26:49.033Z,80.08
2022-08-18T04:30:02.365Z,79.96
2022-08-18T04:32:54.111Z,80.28
2022-08-18T04:35:57.527Z,80.72
2022-08-18T04:38:51.381Z,80.99
2022-08-18T04:41:27.740Z,80.60
2022-08-18T04:44:03.320Z,80.65
2022-08-18T04:46:54.297Z,80.33
2022-08-18T04:49:32.200Z,80.37
2022-08-18T04:52:26.901Z,80.20
2022-08-18T04:55:10.661Z,79.95
2022-08-18T04:57:42.817Z,79.83
2022-08-18T05:00:14.778Z,79.77
2022-08-18T05:02:44.179Z,79.85
2022-08-18T05:05:15.919Z,80.04
2022-08-18T05:07:47.488Z,80.39
2022-08-18T05:10:18.099Z,80.21
2022-08-18T05:12:49.502Z,80.20
2022-08-18T05:15:20.383Z,80.16
2022-08-18T05:18:06.040Z,80.08
2022-08-18T05:20:37.633Z,80.22
2022-08-18T05:23:21.096Z,80.06
2022-08-18T05:25:58.949Z,79.86
2022-08-18T05:28:28.586Z,79.70
2022-08-18T05:31:00.327Z,79.73
2022-08-18T05:34:31.805Z,79.52
2022-08-18T05:38:06.224Z,79.04
2022-08-18T05:41:07.876Z,78.72
2022-08-18T05:44:12.119Z,78.33
2022-08-18T05:47:42.548Z,78.02
2022-08-18T05:51:21.781Z,77.49
2022-08-18T05:54:35.945Z,77.15
2022-08-18T05:57:18.246Z,76.69
2022-08-18T06:00:16.936Z,76.22
2022-08-18T06:53:18.929Z,67.73
2022-08-18T06:56:46.015Z,67.09
2022-08-18T07:00:01.218Z,66.35
2022-08-18T07:03:08.017Z,66.56
2022-08-18T07:06:12.078Z,66.60
2022-08-18T07:08:44.639Z,66.86
2022-08-18T07:11:50.231Z,67.49
2022-08-18T07:14:23.816Z,67.95
2022-08-18T07:17:07.392Z,67.89
2022-08-18T07:19:36.600Z,66.81
2022-08-18T07:22:17.911Z,67.32
2022-08-18T07:24:51.143Z,66.77
2022-08-18T07:27:43.531Z,64.99
2022-08-18T07:31:00.282Z,64.69
2022-08-18T07:34:05.120Z,65.19
2022-08-18T07:37:00.059Z,65.32
2022-08-18T07:40:04.507Z,64.07
2022-08-18T07:43:43.064Z,64.48
2022-08-18T07:46:59.477Z,64.30
2022-08-18T07:50:57.412Z,63.09
2022-08-18T07:54:48.382Z,61.54
2022-08-18T08:01:40.166Z,61.73
2022-08-18T08:08:54.252Z,62.79
2022-08-18T08:12:24.562Z,62.57
2022-08-18T08:15:53.534Z,61.41
2022-08-18T08:19:59.627Z,60.26
2022-08-18T08:26:18.093Z,60.95
2022-08-18T08:29:32.143Z,59.77
2022-08-18T08:32:49.601Z,60.30
2022-08-18T08:36:14.178Z,60.08
2022-08-18T08:39:30.108Z,57.43
2022-08-18T08:42:59.207Z,57.48
2022-08-18T08:56:02.693Z,57.01
2022-08-18T08:59:21.505Z,54.99
2022-08-18T09:02:48.847Z,55.74
2022-08-18T09:05:25.011Z,53.52
2022-08-18T09:08:35.069Z,53.43
2022-08-18T09:11:40.763Z,53.96
2022-08-18T09:14:40.851Z,53.97
2022-08-18T09:17:52.048Z,53.04
2022-08-18T09:20:59.438Z,53.29
2022-08-18T09:24:22.232Z,53.54
2022-08-18T09:28:10.439Z,52.75
2022-08-18T09:31:20.164Z,52.46
2022-08-18T09:34:24.482Z,52.58
2022-08-18T09:37:13.404Z,52.37
2022-08-18T09:40:12.467Z,51.23
2022-08-18T09:42:50.334Z,50.30
2022-08-18T09:49:51.279Z,50.35
2022-08-18T09:52:58.955Z,50.61
2022-08-18T09:56:28.785Z,49.47
2022-08-18T09:59:15.560Z,47.99
2022-08-18T10:02:28.232Z,47.39
2022-08-18T10:05:38.816Z,47.23
2022-08-18T10:09:02.085Z,48.00
2022-08-18T10:12:29.697Z,46.79
2022-08-18T10:15:33.346Z,45.22
2022-08-18T10:18:23.313Z,45.96
2022-08-18T10:24:53.814Z,44.76
2022-08-18T10:27:54.055Z,43.23
2022-08-18T10:31:36.146Z,42.00
2022-08-18T10:34:51.793Z,40.91
2022-08-18T10:38:03.784Z,41.37
2022-08-18T10:41:15.559Z,39.98
2022-08-18T10:47:51.112Z,39.14
2022-08-18T10:51:15.187Z,37.51
2022-08-18T11:06:06.325Z,36.80
2022-08-18T11:09:31.532Z,36.88
2022-08-18T11:13:08.850Z,34.91
2022-08-18T11:16:41.628Z,34.08
2022-08-18T11:20:22.868Z,34.32
2022-08-18T11:23:19.889Z,34.21
2022-08-18T11:25:51.077Z,34.13
2022-08-18T11:28:31.758Z,33.62
2022-08-18T11:31:32.178Z,33.57
2022-08-18T11:34:17.869Z,33.03
2022-08-18T11:37:00.252Z,33.01
2022-08-18T11:39:56.063Z,33.54
2022-08-18T11:43:00.523Z,33.50
2022-08-18T12:12:10.385Z,29.97
2022-08-18T12:22:56.180Z,29.17
2022-08-18T12:26:27.133Z,29.03
2022-08-18T12:29:59.093Z,28.46
2022-08-18T12:33:34.120Z,28.26
2022-08-18T12:37:14.354Z,28.40
2022-08-18T12:43:37.038Z,28.18
2022-08-18T12:47:02.278Z,27.56
2022-08-18T12:50:15.898Z,27.28
2022-08-18T12:56:31.891Z,28.18
2022-08-18T12:59:53.987Z,28.43
2022-08-18T13:07:00.617Z,27.99
2022-08-18T13:10:44.977Z,26.96
2022-08-18T13:14:33.483Z,26.94
2022-08-18T13:17:46.007Z,26.56
2022-08-18T13:20:45.112Z,25.87
2022-08-18T13:24:04.013Z,25.68
2022-08-18T13:27:18.400Z,25.46
2022-08-18T13:30:30.957Z,25.11
2022-08-18T13:33:33.953Z,24.89
2022-08-18T13:36:20.250Z,26.09
2022-08-18T13:39:15.121Z,26.30
2022-08-18T13:41:51.814Z,25.93
2022-08-18T13:44:41.640Z,25.80
2022-08-18T13:47:38.379Z,25.25
2022-08-18T13:50:11.762Z,25.17
2022-08-18T13:52:59.579Z,25.07
2022-08-18T13:56:03.958Z,24.76
2022-08-18T13:59:02.205Z,25.10
2022-08-18T14:01:52.453Z,24.96
2022-08-18T14:04:22.263Z,24.60
2022-08-18T14:06:57.189Z,24.55
2022-08-18T14:09:27.907Z,24.11
2022-08-18T14:12:16.091Z,24.39
2022-08-18T14:14:52.791Z,24.52
2022-08-18T14:17:22.458Z,24.91
2022-08-18T14:20:03.153Z,25.08
2022-08-18T14:22:42.915Z,24.77
2022-08-18T14:25:24.306Z,24.65
2022-08-18T14:27:56.456Z,24.43
2022-08-18T14:30:24.450Z,24.20
2022-08-18T14:33:07.559Z,24.26
2022-08-18T14:36:09.187Z,24.36
2022-08-18T14:38:38.330Z,24.37
2022-08-18T14:41:31.859Z,24.29
2022-08-18T14:44:13.193Z,23.87
2022-08-18T14:47:24.467Z,23.94
2022-08-18T14:49:54.453Z,23.82
2022-08-18T14:52:22.828Z,24.30
2022-08-18T14:55:13.655Z,24.40
2022-08-18T14:57:41.201Z,23.75
2022-08-18T15:00:15.937Z,23.21
2022-08-18T15:02:59.684Z,23.13
2022-08-18T15:05:31.989Z,23.10
2022-08-18T15:08:10.570Z,23.53
2022-08-18T15:10:38.109Z,23.69
2022-08-18T15:13:04.682Z,23.64
2022-08-18T15:15:42.327Z,23.17
2022-08-18T15:18:22.623Z,23.35
2022-08-18T15:21:10.446Z,23.75
2022-08-18T15:23:58.240Z,24.49
2022-08-18T15:26:25.844Z,24.55
2022-08-18T15:28:52.829Z,24.94
2022-08-18T15:34:06.754Z,24.91
2022-08-18T15:36:39.243Z,25.00
2022-08-18T15:39:07.554Z,24.66
2022-08-18T15:41:44.299Z,24.61
2022-08-18T15:44:13.732Z,24.18
2022-08-18T15:46:40.722Z,24.29
2022-08-18T15:49:08.198Z,24.53
2022-08-18T15:51:40.984Z,24.82
2022-08-18T15:54:09.857Z,24.73
2022-08-18T15:56:38.274Z,24.78
2022-08-18T15:59:10.058Z,25.08
2022-08-18T16:01:39.556Z,25.48
2022-08-18T16:06:38.175Z,26.09
2022-08-18T16:09:05.734Z,26.42
2022-08-18T16:11:32.266Z,26.10
2022-08-18T16:13:59.480Z,26.53
2022-08-18T16:16:29.742Z,26.98
2022-08-18T16:19:06.087Z,26.92
2022-08-18T16:21:33.195Z,27.33
2022-08-18T16:24:00.294Z,27.46
2022-08-18T16:26:26.901Z,27.67
2022-08-18T16:28:54.021Z,27.58
2022-08-18T16:31:25.786Z,28.07
2022-08-18T16:33:55.031Z,28.63
2022-08-18T16:36:24.969Z,28.64
2022-08-18T16:38:53.609Z,28.44
2022-08-18T16:41:21.148Z,28.70
2022-08-18T16:43:48.172Z,29.53
2022-08-18T16:46:22.412Z,30.13
2022-08-18T16:48:49.783Z,30.62
2022-08-18T16:51:21.011Z,30.65
2022-08-18T16:53:57.053Z,30.90
2022-08-18T16:56:25.723Z,31.17
2022-08-18T16:59:12.702Z,31.97
2022-08-18T17:01:52.882Z,32.35
2022-08-18T17:04:22.926Z,32.22
2022-08-18T17:06:50.290Z,32.46
2022-08-18T17:09:18.977Z,32.88
2022-08-18T17:11:51.670Z,33.13
2022-08-18T17:14:21.227Z,33.77
2022-08-18T17:16:50.483Z,34.24
2022-08-18T17:19:17.159Z,34.66
2022-08-18T17:21:44.416Z,35.35
2022-08-18T17:24:11.669Z,35.83
2022-08-18T17:26:59.414Z,36.65
2022-08-18T17:29:34.882Z,37.65
2022-08-18T17:32:08.035Z,38.18
2022-08-18T17:34:42.237Z,38.73
2022-08-18T17:37:14.724Z,38.61
2022-08-18T17:39:54.052Z,40.30
2022-08-18T17:42:28.689Z,42.75
2022-08-18T17:45:04.199Z,42.93
2022-08-18T17:47:41.281Z,43.71
2022-08-18T17:50:36.169Z,44.40
2022-08-18T17:53:05.664Z,44.21
2022-08-18T17:55:40.919Z,44.28
2022-08-18T17:58:18.025Z,43.94
2022-08-18T18:00:44.733Z,44.96
2022-08-18T18:03:13.451Z,45.79
2022-08-18T18:05:46.454Z,45.92
2022-08-18T18:08:13.274Z,46.15
2022-08-18T18:13:33.128Z,45.74
2022-08-18T18:16:22.981Z,45.77
2022-08-18T18:19:11.763Z,46.09
2022-08-18T18:21:55.380Z,46.20
2022-08-18T18:24:35.547Z,46.27
2022-08-18T18:27:23.653Z,47.11
2022-08-18T18:30:01.937Z,47.21
2022-08-18T18:32:49.041Z,47.59
2022-08-18T18:35:31.374Z,47.76
2022-08-18T18:38:06.181Z,47.63
2022-08-18T18:40:38.895Z,47.96
2022-08-18T18:43:23.011Z,49.04
2022-08-18T18:46:22.595Z,49.20
2022-08-18T18:49:29.977Z,50.00
2022-08-18T18:52:21.314Z,50.58
2022-08-18T18:55:12.590Z,50.77
2022-08-18T18:58:01.935Z,51.46
2022-08-18T19:00:53.859Z,51.41
2022-08-18T19:03:36.142Z,50.92
2022-08-18T19:06:14.623Z,50.90
2022-08-18T19:08:56.656Z,51.47
2022-08-18T19:11:42.067Z,51.26
2022-08-18T19:14:21.295Z,51.43
2022-08-18T19:17:10.280Z,51.91
2022-08-18T19:20:03.359Z,52.41
2022-08-18T19:22:56.692Z,52.05
2022-08-18T19:25:32.151Z,52.13
2022-08-18T19:28:06.242Z,52.26
2022-08-18T19:30:39.205Z,52.38
2022-08-18T19:33:10.018Z,53.56
2022-08-18T19:35:59.079Z,53.45
2022-08-18T19:38:49.476Z,54.50
2022-08-18T19:41:28.980Z,53.90
2022-08-18T19:44:08.910Z,53.55
2022-08-18T19:46:44.531Z,53.59
2022-08-18T19:49:25.543Z,53.83
2022-08-18T19:51:58.641Z,53.85
2022-08-18T19:55:03.894Z,53.90
2022-08-18T19:58:00.683Z,54.65
2022-08-18T20:00:44.040Z,55.29
2022-08-18T20:03:48.168Z,55.71
2022-08-18T20:06:54.206Z,56.42
2022-08-18T20:09:39.536Z,56.05
2022-08-18T20:12:45.236Z,56.33
2022-08-18T20:15:17.642Z,56.41
2022-08-18T20:18:05.390Z,57.21
2022-08-18T20:20:37.541Z,56.98
2022-08-18T20:23:35.011Z,57.57
2022-08-18T20:26:01.561Z,57.41
2022-08-18T20:28:38.613Z,57.36
2022-08-18T20:31:12.238Z,57.54
2022-08-18T20:33:46.395Z,58.08
2022-08-18T20:36:27.577Z,58.16
2022-08-18T20:38:57.674Z,58.36
2022-08-18T20:41:43.068Z,58.80
2022-08-18T20:44:29.354Z,59.57
2022-08-18T20:47:16.516Z,59.70
2022-08-18T20:49:57.598Z,59.92
2022-08-18T20:52:40.913Z,59.88
2022-08-18T20:55:42.353Z,59.80
2022-08-18T20:58:14.919Z,59.27
2022-08-18T21:00:47.364Z,59.59
2022-08-18T21:03:41.854Z,59.41
2022-08-18T21:06:50.244Z,58.94
2022-08-18T21:09:20.175Z,58.71
2022-08-18T21:11:47.657Z,58.66
2022-08-18T21:14:30.998Z,58.72
2022-08-18T21:17:15.449Z,58.80
2022-08-18T21:19:42.839Z,60.13
2022-08-18T21:22:10.882Z,59.67
2022-08-18T21:24:49.593Z,59.79
2022-08-18T21:27:29.811Z,59.71
2022-08-18T21:30:17.111Z,60.01
2022-08-18T21:32:48.067Z,60.82
2022-08-18T21:35:29.337Z,60.59
2022-08-18T21:38:00.167Z,60.72
2022-08-18T21:40:50.065Z,60.92
2022-08-18T21:43:34.908Z,61.20
2022-08-18T21:46:02.852Z,61.21
2022-08-18T21:48:30.927Z,61.19
2022-08-18T21:51:01.355Z,61.19
2022-08-18T21:53:51.061Z,61.23
2022-08-18T21:56:27.382Z,61.28
2022-08-18T21:59:12.475Z,61.57
2022-08-18T22:01:50.232Z,61.43
2022-08-18T22:04:35.127Z,61.61
2022-08-18T22:07:08.053Z,61.55
2022-08-18T22:10:27.222Z,61.71
2022-08-18T22:13:13.873Z,61.99
2022-08-18T22:16:00.767Z,62.13
2022-08-18T22:18:41.708Z,62.80
2022-08-18T22:21:30.535Z,62.82
2022-08-18T22:24:22.734Z,63.05
2022-08-18T22:27:12.140Z,63.17
2022-08-18T22:30:04.916Z,63.38
2022-08-18T22:32:47.636Z,63.43
2022-08-18T22:35:29.166Z,67.12
2022-08-18T22:37:59.488Z,67.69
2022-08-18T22:40:31.057Z,66.86
2022-08-18T22:42:58.416Z,65.94
2022-08-18T22:45:27.670Z,65.47
2022-08-18T22:47:55.012Z,65.67
2022-08-18T22:50:24.610Z,65.51
2022-08-18T22:52:51.711Z,65.89
2022-08-18T22:55:48.878Z,65.68
2022-08-18T22:58:49.900Z,65.82
2022-08-18T23:02:05.922Z,65.97
2022-08-18T23:05:15.909Z,66.66
2022-08-18T23:11:49.942Z,66.73
2022-08-18T23:15:00.944Z,66.81
2022-08-18T23:18:07.938Z,67.54
2022-08-18T23:21:02.606Z,67.73
2022-08-18T23:24:07.976Z,68.17
2022-08-18T23:27:15.476Z,68.12
2022-08-18T23:30:21.002Z,67.95
2022-08-18T23:33:29.944Z,67.96
2022-08-18T23:36:46.006Z,68.15
2022-08-18T23:39:56.175Z,67.74
2022-08-18T23:42:58.992Z,67.68
2022-08-18T23:46:10.943Z,67.69
2022-08-18T23:49:17.889Z,67.32
2022-08-18T23:52:27.003Z,67.29
2022-08-18T23:55:25.909Z,67.69
2022-08-18T23:58:37.936Z,67.71
